createdAt,value
2019-02-12T00:00:14.070Z,85.88
2019-02-12T00:01:13.864Z,85.84
2019-02-12T00:02:13.272Z,85.77
2019-02-12T00:03:13.350Z,85.84
2019-02-12T00:04:15.061Z,85.7
2019-02-12T00:05:13.888Z,85.63
2019-02-12T00:06:13.999Z,85.62
2019-02-12T00:07:13.699Z,85.63
2019-02-12T00:08:13.507Z,85.59
2019-02-12T00:09:13.203Z,85.44
2019-02-12T00:10:13.716Z,85.59
2019-02-12T00:11:13.236Z,85.6
2019-02-12T00:12:13.449Z,85.54
2019-02-12T00:13:13.636Z,85.73
2019-02-12T00:14:13.950Z,85.66
2019-02-12T00:15:13.443Z,85.69
2019-02-12T00:16:13.554Z,85.56
2019-02-12T00:17:14.179Z,85.71
2019-02-12T00:18:13.311Z,85.67
2019-02-12T00:19:13.541Z,85.61
2019-02-12T00:20:13.888Z,85.77
2019-02-12T00:21:13.298Z,85.83
2019-02-12T00:22:13.277Z,85.79
2019-02-12T00:23:13.187Z,85.95
2019-02-12T00:24:15.033Z,85.92
2019-02-12T00:25:13.920Z,85.93
2019-02-12T00:26:14.441Z,86.02
2019-02-12T00:27:13.525Z,86.09
2019-02-12T00:28:14.041Z,86.09
2019-02-12T00:29:13.434Z,86.29
2019-02-12T00:30:13.308Z,86.11
2019-02-12T00:31:13.216Z,86.05
2019-02-12T00:32:13.659Z,86.29
2019-02-12T00:33:13.779Z,86.51
2019-02-12T00:34:13.466Z,86.71
2019-02-12T00:35:13.679Z,86.58
2019-02-12T00:36:13.685Z,86.42
2019-02-12T00:37:13.588Z,86.26
2019-02-12T00:38:13.599Z,86.25
2019-02-12T00:39:13.308Z,86.22
2019-02-12T00:40:13.340Z,86.32
2019-02-12T00:41:13.390Z,86.3
2019-02-12T00:42:13.417Z,86.21
2019-02-12T00:43:13.312Z,86.14
2019-02-12T00:44:13.198Z,86.15
2019-02-12T00:45:13.539Z,86.2
2019-02-12T00:46:13.191Z,86.3
2019-02-12T00:47:13.132Z,86.14
2019-02-12T00:48:13.359Z,86.16
2019-02-12T00:49:13.368Z,86.2
2019-02-12T00:50:13.475Z,85.97
2019-02-12T00:51:17.674Z,86.27
2019-02-12T00:52:13.260Z,86
2019-02-12T00:53:13.389Z,85.97
2019-02-12T00:54:13.117Z,86.22
2019-02-12T00:55:14.986Z,86.52
2019-02-12T00:56:13.222Z,86.45
2019-02-12T00:57:13.417Z,86.56
2019-02-12T00:58:14.552Z,86.74
2019-02-12T00:59:13.630Z,86.53
2019-02-12T01:00:14.861Z,86.63
2019-02-12T01:01:13.337Z,86.51
2019-02-12T01:02:13.566Z,86.17
2019-02-12T01:03:13.351Z,86.55
2019-02-12T01:04:13.462Z,86.22
2019-02-12T01:05:13.774Z,86.24
2019-02-12T01:06:13.119Z,86.47
2019-02-12T01:07:13.377Z,86.41
2019-02-12T01:08:13.588Z,86.42
2019-02-12T01:09:13.103Z,86.25
2019-02-12T01:10:14.973Z,86.23
2019-02-12T01:11:13.114Z,86.3
2019-02-12T01:12:13.923Z,86.29
2019-02-12T01:13:13.211Z,86.16
2019-02-12T01:14:13.831Z,86.02
2019-02-12T01:15:13.464Z,86.21
2019-02-12T01:16:13.429Z,86.08
2019-02-12T01:17:13.340Z,86
2019-02-12T01:18:13.551Z,86
2019-02-12T01:19:14.173Z,85.93
2019-02-12T01:20:13.298Z,85.92
2019-02-12T01:21:14.086Z,85.95
2019-02-12T01:22:13.137Z,85.72
2019-02-12T01:23:13.230Z,85.82
2019-02-12T01:24:13.131Z,85.59
2019-02-12T01:25:13.396Z,85.43
2019-02-12T01:26:13.109Z,85.39
2019-02-12T01:27:12.932Z,85.33
2019-02-12T01:28:14.948Z,85.45
2019-02-12T01:29:13.522Z,85.57
2019-02-12T01:30:13.631Z,85.56
2019-02-12T01:31:14.162Z,85.7
2019-02-12T01:32:13.750Z,85.61
2019-02-12T01:33:13.347Z,85.47
2019-02-12T01:34:13.441Z,85.68
2019-02-12T01:35:13.972Z,85.11
2019-02-12T01:36:13.985Z,84.9
2019-02-12T01:37:13.475Z,84.93
2019-02-12T01:38:13.316Z,85.06
2019-02-12T01:39:14.926Z,84.85
2019-02-12T01:40:13.105Z,84.74
2019-02-12T01:41:14.929Z,84.71
2019-02-12T01:42:13.544Z,85.08
2019-02-12T01:43:13.925Z,84.93
2019-02-12T01:44:14.645Z,84.96
2019-02-12T01:45:13.557Z,84.96
2019-02-12T01:46:14.909Z,84.94
2019-02-12T01:47:13.063Z,85.11
2019-02-12T01:48:13.450Z,85.04
2019-02-12T01:49:13.454Z,84.94
2019-02-12T01:50:13.564Z,84.88
2019-02-12T01:51:13.774Z,84.89
2019-02-12T01:52:14.395Z,84.88
2019-02-12T01:53:13.188Z,84.76
2019-02-12T01:54:13.380Z,84.74
2019-02-12T01:55:13.218Z,84.62
2019-02-12T01:56:13.038Z,84.61
2019-02-12T01:57:13.812Z,84.67
2019-02-12T01:58:13.936Z,84.62
2019-02-12T01:59:13.414Z,84.69
2019-02-12T02:00:14.447Z,84.84
2019-02-12T02:01:13.631Z,84.99
2019-02-12T02:02:13.438Z,85.05
2019-02-12T02:03:13.173Z,84.97
2019-02-12T02:04:13.091Z,84.98
2019-02-12T02:05:13.763Z,84.9
2019-02-12T02:06:13.079Z,84.94
2019-02-12T02:07:13.363Z,85.19
2019-02-12T02:08:14.872Z,85.36
2019-02-12T02:09:13.089Z,85.4
2019-02-12T02:10:13.232Z,85.25
2019-02-12T02:11:13.548Z,85.53
2019-02-12T02:12:13.399Z,85.59
2019-02-12T02:13:14.211Z,85.54
2019-02-12T02:14:13.288Z,85.47
2019-02-12T02:15:13.421Z,85.73
2019-02-12T02:16:13.188Z,85.51
2019-02-12T02:17:13.432Z,85.55
2019-02-12T02:18:13.197Z,85.65
2019-02-12T02:19:13.232Z,85.54
2019-02-12T02:20:13.347Z,85.79
2019-02-12T02:21:13.106Z,85.87
2019-02-12T02:22:14.181Z,85.63
2019-02-12T02:23:13.011Z,85.46
2019-02-12T02:24:13.123Z,85.52
2019-02-12T02:25:13.278Z,85.6
2019-02-12T02:26:13.097Z,85.37
2019-02-12T02:27:13.167Z,85.46
2019-02-12T02:28:13.300Z,85.26
2019-02-12T02:29:13.175Z,85.1
2019-02-12T02:30:13.518Z,85.12
2019-02-12T02:31:13.322Z,85.19
2019-02-12T02:32:14.852Z,85.31
2019-02-12T02:33:13.129Z,85.19
2019-02-12T02:34:13.346Z,85.31
2019-02-12T02:35:13.032Z,85.35
2019-02-12T02:36:13.206Z,85.19
2019-02-12T02:37:13.109Z,85.25
2019-02-12T02:38:12.988Z,85.32
2019-02-12T02:39:13.092Z,85.2
2019-02-12T02:40:13.119Z,85.36
2019-02-12T02:41:14.304Z,85.61
2019-02-12T02:42:13.491Z,85.9
2019-02-12T02:43:13.398Z,85.77
2019-02-12T02:44:12.976Z,86.04
2019-02-12T02:45:13.210Z,86.3
2019-02-12T02:46:12.963Z,86.21
2019-02-12T02:47:13.523Z,86.27
2019-02-12T02:48:13.112Z,85.86
2019-02-12T02:49:13.639Z,85.77
2019-02-12T02:50:14.181Z,85.93
2019-02-12T02:51:13.763Z,85.92
2019-02-12T02:52:14.819Z,85.79
2019-02-12T02:53:13.450Z,85.87
2019-02-12T02:54:12.995Z,86.08
2019-02-12T02:55:13.167Z,86.04
2019-02-12T02:56:12.986Z,85.87
2019-02-12T02:57:13.693Z,86.05
2019-02-12T02:58:12.968Z,86.22
2019-02-12T02:59:13.399Z,86.16
2019-02-12T03:00:13.712Z,85.84
2019-02-12T03:01:13.043Z,85.89
2019-02-12T03:02:13.421Z,85.97
2019-02-12T03:03:13.098Z,85.83
2019-02-12T03:04:13.231Z,85.71
2019-02-12T03:05:13.140Z,86.35
2019-02-12T03:06:13.049Z,85.85
2019-02-12T03:07:13.456Z,85.94
2019-02-12T03:08:13.566Z,86.04
2019-02-12T03:09:12.951Z,86.19
2019-02-12T03:10:13.574Z,86.19
2019-02-12T03:11:13.379Z,85.98
2019-02-12T03:12:13.282Z,86.12
2019-02-12T03:13:13.188Z,85.92
2019-02-12T03:14:13.124Z,86.11
2019-02-12T03:15:13.120Z,86.03
2019-02-12T03:16:13.310Z,86.36
2019-02-12T03:17:14.783Z,86.29
2019-02-12T03:18:13.269Z,86.18
2019-02-12T03:19:13.073Z,86.39
2019-02-12T03:20:13.335Z,86.43
2019-02-12T03:21:13.342Z,86.08
2019-02-12T03:22:13.246Z,86.48
2019-02-12T03:23:14.789Z,86.31
2019-02-12T03:24:13.566Z,86.46
2019-02-12T03:25:12.892Z,86.56
2019-02-12T03:26:12.922Z,86.48
2019-02-12T03:27:12.746Z,86.38
2019-02-12T03:28:13.284Z,86.09
2019-02-12T03:29:13.190Z,86.28
2019-02-12T03:30:13.468Z,86.21
2019-02-12T03:31:13.207Z,86.18
2019-02-12T03:32:13.049Z,86.09
2019-02-12T03:33:13.344Z,86.11
2019-02-12T03:34:13.233Z,86.26
2019-02-12T03:35:13.653Z,86.31
2019-02-12T03:36:13.021Z,86.31
2019-02-12T03:37:12.989Z,86
2019-02-12T03:38:13.259Z,85.96
2019-02-12T03:39:13.669Z,86.03
2019-02-12T03:40:12.981Z,86.12
2019-02-12T03:41:13.043Z,86.72
2019-02-12T03:42:13.495Z,86.5
2019-02-12T03:43:12.921Z,86.89
2019-02-12T03:44:13.186Z,86.8
2019-02-12T03:45:12.959Z,86.22
2019-02-12T03:46:13.199Z,86.36
2019-02-12T03:47:13.413Z,86.37
2019-02-12T03:48:13.519Z,86.41
2019-02-12T03:49:13.216Z,86.11
2019-02-12T03:50:13.017Z,86.2
2019-02-12T03:51:12.931Z,86.18
2019-02-12T03:52:13.349Z,86.25
2019-02-12T03:53:12.978Z,86.6
2019-02-12T03:54:12.972Z,86.5
2019-02-12T03:55:13.271Z,87.11
2019-02-12T03:56:12.970Z,86.85
2019-02-12T03:57:12.958Z,86.65
2019-02-12T03:58:12.882Z,86.62
2019-02-12T03:59:13.388Z,86.89
2019-02-12T04:00:13.598Z,87.53
2019-02-12T04:01:12.986Z,87.52
2019-02-12T04:02:13.061Z,87.62
2019-02-12T04:03:13.057Z,87.01
2019-02-12T04:04:12.847Z,87.09
2019-02-12T04:05:14.703Z,87.19
2019-02-12T04:06:13.737Z,87.4
2019-02-12T04:07:13.448Z,87.25
2019-02-12T04:08:13.014Z,87.67
2019-02-12T04:09:13.789Z,87.21
2019-02-12T04:10:13.037Z,87.39
2019-02-12T04:11:12.933Z,86.94
2019-02-12T04:12:13.052Z,86.98
2019-02-12T04:13:13.074Z,86.77
2019-02-12T04:14:12.926Z,87.52
2019-02-12T04:15:12.893Z,87.19
2019-02-12T04:16:13.190Z,87.09
2019-02-12T04:17:12.935Z,86.83
2019-02-12T04:18:12.877Z,86.64
2019-02-12T04:19:12.924Z,86.62
2019-02-12T04:20:12.909Z,86.64
2019-02-12T04:21:12.864Z,87.21
2019-02-12T04:22:21.890Z,86.98
2019-02-12T04:23:13.441Z,86.85
2019-02-12T04:24:13.242Z,87.03
2019-02-12T04:25:12.908Z,86.94
2019-02-12T04:26:12.946Z,87.43
2019-02-12T04:27:13.161Z,87.31
2019-02-12T04:28:13.884Z,87.05
2019-02-12T04:29:13.179Z,87.15
2019-02-12T04:30:12.920Z,86.87
2019-02-12T04:31:13.390Z,87.02
2019-02-12T04:32:12.972Z,86.64
2019-02-12T04:33:14.673Z,86.58
2019-02-12T04:34:13.035Z,86.89
2019-02-12T04:35:13.095Z,86.63
2019-02-12T04:36:13.025Z,86.84
2019-02-12T04:37:12.895Z,86.93
2019-02-12T04:38:12.912Z,86.87
2019-02-12T04:39:12.780Z,87.06
2019-02-12T04:40:13.146Z,87.14
2019-02-12T04:41:12.831Z,87.12
2019-02-12T04:42:12.852Z,87.22
2019-02-12T04:43:13.369Z,87
2019-02-12T04:44:12.968Z,87.02
2019-02-12T04:45:13.694Z,87.44
2019-02-12T04:46:12.992Z,87.6
2019-02-12T04:47:13.189Z,87.42
2019-02-12T04:48:13.139Z,87.04
2019-02-12T04:49:13.277Z,86.99
2019-02-12T04:50:13.866Z,86.98
2019-02-12T04:51:13.219Z,87.12
2019-02-12T04:52:13.120Z,87.09
2019-02-12T04:53:13.918Z,87.08
2019-02-12T04:54:13.248Z,87.27
2019-02-12T04:55:13.033Z,87.44
2019-02-12T04:56:13.247Z,87.39
2019-02-12T04:57:12.973Z,87.17
2019-02-12T04:58:13.024Z,87.11
2019-02-12T04:59:14.624Z,86.99
2019-02-12T05:00:12.949Z,87.35
2019-02-12T05:01:13.038Z,87.32
2019-02-12T05:02:14.617Z,87.47
2019-02-12T05:03:13.807Z,87.52
2019-02-12T05:04:13.005Z,87.11
2019-02-12T05:05:13.021Z,87.01
2019-02-12T05:06:13.112Z,87
2019-02-12T05:07:13.132Z,86.95
2019-02-12T05:08:14.016Z,86.96
2019-02-12T05:09:13.243Z,87.07
2019-02-12T05:10:13.751Z,87.09
2019-02-12T05:11:12.907Z,86.99
2019-02-12T05:12:12.975Z,86.81
2019-02-12T05:13:13.463Z,86.88
2019-02-12T05:14:14.603Z,86.91
2019-02-12T05:15:12.912Z,87.26
2019-02-12T05:16:13.483Z,86.82
2019-02-12T05:17:13.002Z,87.35
2019-02-12T05:18:13.200Z,87.39
2019-02-12T05:19:14.517Z,87.45
2019-02-12T05:20:13.026Z,87.63
2019-02-12T05:21:13.412Z,87.7
2019-02-12T05:22:13.215Z,87.57
2019-02-12T05:23:13.041Z,87.6
2019-02-12T05:24:12.732Z,87.67
2019-02-12T05:25:13.747Z,87.6
2019-02-12T05:26:13.656Z,87.75
2019-02-12T05:27:12.743Z,87.55
2019-02-12T05:28:12.754Z,87.93
2019-02-12T05:29:13.094Z,88.01
2019-02-12T05:30:13.145Z,87.78
2019-02-12T05:31:13.282Z,87.9
2019-02-12T05:32:13.050Z,87.83
2019-02-12T05:33:13.390Z,87.68
2019-02-12T05:34:13.498Z,87.91
2019-02-12T05:35:13.305Z,87.61
2019-02-12T05:36:12.832Z,87.85
2019-02-12T05:37:12.847Z,87.83
2019-02-12T05:38:12.692Z,87.95
2019-02-12T05:39:12.760Z,87.98
2019-02-12T05:40:13.037Z,88.12
2019-02-12T05:41:13.241Z,88.59
2019-02-12T05:42:14.564Z,87.9
2019-02-12T05:43:12.907Z,87.86
2019-02-12T05:44:12.916Z,88.18
2019-02-12T05:45:12.853Z,88.11
2019-02-12T05:46:14.564Z,87.81
2019-02-12T05:47:13.646Z,87.75
2019-02-12T05:48:12.920Z,87.96
2019-02-12T05:49:12.914Z,88
2019-02-12T05:50:13.038Z,87.92
2019-02-12T05:51:13.123Z,87.71
2019-02-12T05:52:13.087Z,88
2019-02-12T05:53:12.971Z,87.97
2019-02-12T05:54:12.912Z,87.95
2019-02-12T05:55:13.227Z,87.71
2019-02-12T05:56:13.026Z,87.6
2019-02-12T05:57:12.703Z,87.76
2019-02-12T05:58:12.788Z,87.73
2019-02-12T05:59:13.051Z,87.84
2019-02-12T06:00:12.955Z,87.75
2019-02-12T06:01:14.532Z,87.67
2019-02-12T06:02:12.941Z,87.85
2019-02-12T06:03:12.947Z,87.72
2019-02-12T06:04:12.734Z,87.81
2019-02-12T06:05:12.988Z,87.63
2019-02-12T06:06:12.997Z,87.51
2019-02-12T06:07:13.205Z,87.62
2019-02-12T06:08:13.522Z,87.88
2019-02-12T06:09:13.022Z,87.89
2019-02-12T06:10:13.020Z,88.15
2019-02-12T06:11:13.058Z,87.91
2019-02-12T06:12:13.250Z,87.97
2019-02-12T06:13:13.005Z,88.09
2019-02-12T06:14:12.960Z,87.85
2019-02-12T06:15:13.259Z,87.67
2019-02-12T06:16:12.978Z,88.09
2019-02-12T06:17:13.040Z,88.09
2019-02-12T06:18:13.383Z,87.96
2019-02-12T06:19:15.037Z,87.87
2019-02-12T06:20:12.982Z,87.95
2019-02-12T06:21:12.990Z,87.75
2019-02-12T06:22:13.093Z,87.71
2019-02-12T06:23:12.942Z,88.03
2019-02-12T06:24:13.075Z,88.08
2019-02-12T06:25:13.635Z,87.89
2019-02-12T06:26:13.360Z,87.72
2019-02-12T06:27:12.720Z,87.68
2019-02-12T06:28:12.942Z,87.62
2019-02-12T06:29:14.492Z,87.59
2019-02-12T06:30:13.095Z,87.47
2019-02-12T06:31:12.713Z,87.63
2019-02-12T06:32:13.077Z,87.72
2019-02-12T06:33:12.968Z,87.64
2019-02-12T06:34:12.974Z,87.59
2019-02-12T06:35:12.988Z,87.6
2019-02-12T06:36:12.740Z,87.61
2019-02-12T06:37:12.783Z,87.66
2019-02-12T06:38:12.618Z,87.85
2019-02-12T06:39:13.019Z,87.6
2019-02-12T06:40:12.912Z,87.76
2019-02-12T06:41:12.772Z,87.79
2019-02-12T06:42:12.719Z,87.7
2019-02-12T06:43:14.468Z,87.7
2019-02-12T06:44:12.955Z,87.69
2019-02-12T06:45:12.970Z,87.9
2019-02-12T06:46:14.490Z,87.83
2019-02-12T06:47:13.061Z,87.87
2019-02-12T06:48:12.965Z,87.85
2019-02-12T06:49:13.548Z,87.74
2019-02-12T06:50:12.983Z,88.07
2019-02-12T06:51:13.454Z,88.09
2019-02-12T06:52:13.074Z,88.68
2019-02-12T06:53:13.203Z,88.6
2019-02-12T06:54:13.009Z,88.39
2019-02-12T06:55:12.606Z,88.85
2019-02-12T06:56:12.918Z,88.73
2019-02-12T06:57:13.062Z,88.84
2019-02-12T06:58:13.032Z,88.94
2019-02-12T06:59:14.447Z,89.02
2019-02-12T07:00:13.076Z,89.22
2019-02-12T07:01:12.957Z,88.8
2019-02-12T07:02:13.262Z,88.88
2019-02-12T07:03:13.489Z,89.37
2019-02-12T07:04:12.777Z,89.06
2019-02-12T07:05:12.711Z,88.71
2019-02-12T07:06:13.034Z,89.21
2019-02-12T07:07:12.987Z,89.25
2019-02-12T07:08:12.577Z,89.17
2019-02-12T07:09:12.769Z,89.07
2019-02-12T07:10:12.912Z,89.44
2019-02-12T07:11:12.700Z,88.78
2019-02-12T07:12:14.428Z,88.89
2019-02-12T07:13:13.027Z,88.89
2019-02-12T07:14:12.933Z,88.99
2019-02-12T07:15:13.030Z,89.02
2019-02-12T07:16:13.261Z,88.76
2019-02-12T07:17:12.592Z,88.78
2019-02-12T07:18:12.959Z,89.2
2019-02-12T07:19:12.666Z,89.51
2019-02-12T07:20:12.761Z,89.98
2019-02-12T07:21:12.991Z,89.18
2019-02-12T07:22:12.636Z,89.46
2019-02-12T07:23:21.109Z,89.13
2019-02-12T07:24:12.998Z,88.89
2019-02-12T07:25:13.479Z,88.95
2019-02-12T07:26:12.920Z,89.35
2019-02-12T07:27:13.025Z,89.03
2019-02-12T07:28:12.588Z,88.9
2019-02-12T07:29:12.631Z,88.93
2019-02-12T07:30:12.595Z,88.88
2019-02-12T07:31:12.943Z,88.97
2019-02-12T07:32:13.489Z,89.13
2019-02-12T07:33:13.462Z,89.06
2019-02-12T07:34:12.684Z,88.91
2019-02-12T07:35:14.401Z,89.2
2019-02-12T07:36:12.873Z,89.15
2019-02-12T07:37:12.594Z,89.16
2019-02-12T07:38:13.025Z,89.23
2019-02-12T07:39:12.997Z,89.3
2019-02-12T07:40:13.110Z,89.15
2019-02-12T07:41:19.832Z,89.15
2019-02-12T07:42:12.604Z,89.23
2019-02-12T07:43:12.555Z,89.06
2019-02-12T07:44:14.398Z,89.28
2019-02-12T07:45:12.722Z,89.18
2019-02-12T07:46:12.647Z,89.09
2019-02-12T07:47:13.783Z,88.75
2019-02-12T07:48:13.217Z,89.17
2019-02-12T07:49:12.559Z,89.23
2019-02-12T07:50:12.864Z,88.85
2019-02-12T07:51:12.976Z,89.1
2019-02-12T07:52:12.517Z,89.19
2019-02-12T07:53:12.895Z,89.19
2019-02-12T07:54:12.501Z,89.05
2019-02-12T07:55:12.542Z,89.14
2019-02-12T07:56:12.909Z,88.91
2019-02-12T07:57:12.496Z,88.92
2019-02-12T07:58:13.019Z,89.11
2019-02-12T07:59:12.519Z,89.34
2019-02-12T08:00:12.835Z,89.25
2019-02-12T08:01:12.496Z,89.53
2019-02-12T08:02:13.152Z,89.24
2019-02-12T08:03:14.354Z,88.89
2019-02-12T08:04:12.992Z,89.3
2019-02-12T08:05:12.555Z,89.15
2019-02-12T08:06:12.979Z,88.94
2019-02-12T08:07:13.085Z,89.02
2019-02-12T08:08:12.651Z,89.4
2019-02-12T08:09:12.990Z,89.16
2019-02-12T08:10:12.621Z,89.18
2019-02-12T08:11:12.899Z,89.29
2019-02-12T08:12:12.581Z,89.06
2019-02-12T08:13:13.027Z,88.98
2019-02-12T08:14:12.824Z,89.23
2019-02-12T08:15:12.645Z,89.04
2019-02-12T08:16:12.735Z,88.93
2019-02-12T08:17:13.042Z,89.09
2019-02-12T08:18:12.613Z,89.12
2019-02-12T08:19:13.082Z,89.12
2019-02-12T08:20:12.371Z,89.03
2019-02-12T08:21:12.661Z,88.85
2019-02-12T08:22:14.184Z,89.48
2019-02-12T08:23:12.781Z,88.93
2019-02-12T08:24:13.119Z,88.65
2019-02-12T08:25:13.197Z,88.63
2019-02-12T08:26:12.699Z,88.92
2019-02-12T08:27:12.906Z,89.15
2019-02-12T08:28:12.454Z,89.09
2019-02-12T08:29:13.050Z,89.75
2019-02-12T08:30:12.643Z,89.25
2019-02-12T08:31:12.738Z,89.15
2019-02-12T08:32:12.535Z,89.64
2019-02-12T08:33:12.748Z,89.32
2019-02-12T08:34:12.851Z,89.16
2019-02-12T08:35:12.739Z,89.1
2019-02-12T08:36:12.499Z,88.81
2019-02-12T08:37:14.300Z,89
2019-02-12T08:38:12.772Z,88.78
2019-02-12T08:39:13.601Z,88.82
2019-02-12T08:40:13.202Z,88.79
2019-02-12T08:41:12.683Z,88.95
2019-02-12T08:42:12.536Z,89.1
2019-02-12T08:43:14.289Z,88.97
2019-02-12T08:44:12.813Z,88.82
2019-02-12T08:45:12.274Z,88.9
2019-02-12T08:46:12.754Z,88.71
2019-02-12T08:47:12.735Z,88.85
2019-02-12T08:48:12.945Z,89.06
2019-02-12T08:49:12.509Z,88.94
2019-02-12T08:50:13.061Z,89.07
2019-02-12T08:51:12.977Z,88.8
2019-02-12T08:52:13.068Z,88.88
2019-02-12T08:53:12.550Z,89.31
2019-02-12T08:54:12.571Z,89.2
2019-02-12T08:55:12.435Z,89.3
2019-02-12T08:56:14.482Z,88.78
2019-02-12T08:57:12.420Z,88.81
2019-02-12T08:58:12.635Z,88.79
2019-02-12T08:59:12.434Z,89
2019-02-12T09:00:13.023Z,88.82
2019-02-12T09:01:13.184Z,88.91
2019-02-12T09:02:13.241Z,88.74
2019-02-12T09:03:12.837Z,88.77
2019-02-12T09:04:12.431Z,88.72
2019-02-12T09:05:12.953Z,88.71
2019-02-12T09:06:12.611Z,88.57
2019-02-12T09:07:12.394Z,88.55
2019-02-12T09:08:12.663Z,88.47
2019-02-12T09:09:12.780Z,88.66
2019-02-12T09:10:12.680Z,88.47
2019-02-12T09:11:12.583Z,88.55
2019-02-12T09:12:12.413Z,88.38
2019-02-12T09:13:13.308Z,88.21
2019-02-12T09:14:12.708Z,88.17
2019-02-12T09:15:13.637Z,87.93
2019-02-12T09:16:12.391Z,87.87
2019-02-12T09:17:12.476Z,88.01
2019-02-12T09:18:12.447Z,87.92
2019-02-12T09:19:12.501Z,87.91
2019-02-12T09:20:12.748Z,87.9
2019-02-12T09:21:12.751Z,87.89
2019-02-12T09:22:12.656Z,87.8
2019-02-12T09:23:12.662Z,87.7
2019-02-12T09:24:14.586Z,87.74
2019-02-12T09:25:13.277Z,87.88
2019-02-12T09:26:12.681Z,87.92
2019-02-12T09:27:14.230Z,87.9
2019-02-12T09:28:12.499Z,88.3
2019-02-12T09:29:12.498Z,88.3
2019-02-12T09:30:12.708Z,88.14
2019-02-12T09:31:12.538Z,87.87
2019-02-12T09:32:12.741Z,87.61
2019-02-12T09:33:14.240Z,87.48
2019-02-12T09:34:12.354Z,87.39
2019-02-12T09:35:12.740Z,87.26
2019-02-12T09:36:12.755Z,87.29
2019-02-12T09:37:12.860Z,87.36
2019-02-12T09:38:12.663Z,87.68
2019-02-12T09:39:12.871Z,87.39
2019-02-12T09:40:18.768Z,87.26
2019-02-12T09:41:12.794Z,87.04
2019-02-12T09:42:12.793Z,86.67
2019-02-12T09:43:13.223Z,86.73
2019-02-12T09:44:12.910Z,86.84
2019-02-12T09:45:13.037Z,86.62
2019-02-12T09:46:12.367Z,86.81
2019-02-12T09:47:12.940Z,86.86
2019-02-12T09:48:12.475Z,86.78
2019-02-12T09:49:12.848Z,86.45
2019-02-12T09:50:12.553Z,86.23
2019-02-12T09:51:13.053Z,86.09
2019-02-12T09:52:13.368Z,85.85
2019-02-12T09:53:13.798Z,85.92
2019-02-12T09:54:12.678Z,85.61
2019-02-12T09:55:12.681Z,85.65
2019-02-12T09:56:12.677Z,85.64
2019-02-12T09:57:12.889Z,85.47
2019-02-12T09:58:12.906Z,85.31
2019-02-12T09:59:12.609Z,85.64
2019-02-12T10:00:13.017Z,85.75
2019-02-12T10:01:12.714Z,85.88
2019-02-12T10:02:13.544Z,86.49
2019-02-12T10:03:12.624Z,86.6
2019-02-12T10:04:12.733Z,86.12
2019-02-12T10:05:12.318Z,85.88
2019-02-12T10:06:21.205Z,85.85
2019-02-12T10:07:12.973Z,85.79
2019-02-12T10:08:12.474Z,85.73
2019-02-12T10:09:12.787Z,85.35
2019-02-12T10:10:12.456Z,85.27
2019-02-12T10:11:12.370Z,85.3
2019-02-12T10:12:12.474Z,85.1
2019-02-12T10:13:12.691Z,84.96
2019-02-12T10:14:12.623Z,84.85
2019-02-12T10:15:13.044Z,84.85
2019-02-12T10:16:12.918Z,85.27
2019-02-12T10:17:12.816Z,84.87
2019-02-12T10:18:12.939Z,84.8
2019-02-12T10:19:12.732Z,84.61
2019-02-12T10:20:13.042Z,84.66
2019-02-12T10:21:12.297Z,84.79
2019-02-12T10:22:12.598Z,84.4
2019-02-12T10:23:12.857Z,84.58
2019-02-12T10:24:19.508Z,84.54
2019-02-12T10:25:13.209Z,84.54
2019-02-12T10:26:12.468Z,84.78
2019-02-12T10:27:12.682Z,84.72
2019-02-12T10:28:13.095Z,84.58
2019-02-12T10:29:12.897Z,84.9
2019-02-12T10:30:12.485Z,85
2019-02-12T10:31:12.706Z,84.93
2019-02-12T10:32:12.617Z,84.68
2019-02-12T10:33:12.277Z,84.6
2019-02-12T10:34:12.623Z,84.41
2019-02-12T10:35:12.441Z,83.8
2019-02-12T10:36:12.635Z,83.89
2019-02-12T10:37:13.056Z,83.96
2019-02-12T10:39:12.757Z,84.15
2019-02-12T10:40:13.935Z,84.39
2019-02-12T10:41:12.591Z,84.1
2019-02-12T10:42:12.453Z,83.73
2019-02-12T10:43:12.390Z,82.52
2019-02-12T10:44:12.906Z,82.44
2019-02-12T10:45:13.005Z,82.48
2019-02-12T10:46:14.127Z,82.93
2019-02-12T10:47:12.508Z,81.92
2019-02-12T10:48:12.412Z,82.73
2019-02-12T10:49:12.251Z,82.64
2019-02-12T10:50:12.631Z,82.7
2019-02-12T10:51:12.416Z,82.43
2019-02-12T10:52:12.754Z,82.78
2019-02-12T10:53:12.857Z,82.48
2019-02-12T10:54:13.597Z,81.83
2019-02-12T10:56:14.098Z,81.79
2019-02-12T10:57:13.201Z,81.32
2019-02-12T10:58:12.374Z,81.06
2019-02-12T10:59:14.351Z,80.7
2019-02-12T11:00:13.508Z,80.87
2019-02-12T11:01:12.276Z,80.9
2019-02-12T11:02:12.501Z,80.69
2019-02-12T11:03:12.509Z,80.58
2019-02-12T11:04:12.615Z,79.61
2019-02-12T11:05:12.317Z,79.59
2019-02-12T11:06:12.307Z,78.91
2019-02-12T11:07:12.293Z,78.67
2019-02-12T11:08:13.678Z,78.85
2019-02-12T11:09:12.451Z,78.07
2019-02-12T11:10:12.776Z,78.39
2019-02-12T11:11:15.512Z,78.73
2019-02-12T11:12:12.601Z,79.2
2019-02-12T11:13:12.376Z,77.88
2019-02-12T11:14:12.581Z,78.48
2019-02-12T11:15:12.499Z,78.78
2019-02-12T11:16:12.290Z,78.81
2019-02-12T11:17:13.218Z,78.96
2019-02-12T11:18:14.049Z,79.08
2019-02-12T11:19:12.613Z,78.91
2019-02-12T11:20:12.729Z,79.21
2019-02-12T11:21:12.520Z,78.97
2019-02-12T11:22:14.056Z,78.97
2019-02-12T11:23:12.243Z,78.38
2019-02-12T11:24:12.219Z,78.15
2019-02-12T11:25:12.449Z,77.68
2019-02-12T11:26:12.905Z,77.08
2019-02-12T11:27:13.501Z,75.36
2019-02-12T11:28:12.468Z,75.4
2019-02-12T11:29:12.679Z,75.82
2019-02-12T11:30:12.238Z,76.54
2019-02-12T11:31:12.603Z,76.27
2019-02-12T11:32:12.701Z,76.07
2019-02-12T11:33:12.811Z,76.19
2019-02-12T11:34:14.040Z,75.28
2019-02-12T11:35:12.821Z,76.09
2019-02-12T11:36:12.220Z,75.58
2019-02-12T11:37:12.336Z,75.88
2019-02-12T11:38:12.534Z,74.37
2019-02-12T11:39:12.215Z,74.96
2019-02-12T11:40:13.435Z,74.65
2019-02-12T11:41:12.234Z,75.68
2019-02-12T11:42:12.471Z,74.51
2019-02-12T11:43:12.466Z,73.16
2019-02-12T11:44:12.996Z,73.5
2019-02-12T11:45:12.581Z,71.31
2019-02-12T11:46:12.486Z,70.15
2019-02-12T11:47:12.492Z,71.81
2019-02-12T11:48:12.276Z,70.43
2019-02-12T11:49:12.162Z,69.58
2019-02-12T11:50:12.408Z,69.12
2019-02-12T11:51:12.377Z,68.31
2019-02-12T11:52:12.221Z,67.55
2019-02-12T11:53:12.633Z,67.37
2019-02-12T11:54:12.232Z,67.32
2019-02-12T11:55:12.649Z,66.7
2019-02-12T11:56:12.257Z,67.59
2019-02-12T11:57:12.680Z,67.06
2019-02-12T11:58:12.465Z,66.67
2019-02-12T11:59:12.290Z,67.3
2019-02-12T12:00:12.348Z,67.49
2019-02-12T12:01:12.484Z,67.66
2019-02-12T12:02:13.984Z,67.15
2019-02-12T12:03:12.495Z,68.39
2019-02-12T12:04:12.513Z,67.67
2019-02-12T12:05:12.508Z,67.38
2019-02-12T12:06:12.719Z,68.88
2019-02-12T12:07:12.263Z,67.89
2019-02-12T12:08:12.634Z,67.55
2019-02-12T12:09:12.150Z,66.99
2019-02-12T12:10:12.286Z,67.26
2019-02-12T12:11:12.113Z,66.78
2019-02-12T12:12:12.282Z,66.44
2019-02-12T12:13:12.223Z,67.25
2019-02-12T12:14:12.126Z,66.86
2019-02-12T12:15:12.142Z,66.47
2019-02-12T12:16:12.488Z,66.25
2019-02-12T12:17:12.103Z,66.14
2019-02-12T12:18:12.168Z,66.59
2019-02-12T12:19:13.958Z,66.49
2019-02-12T12:20:12.161Z,66.2
2019-02-12T12:21:12.207Z,66.86
2019-02-12T12:22:12.155Z,66.15
2019-02-12T12:23:12.121Z,66.51
2019-02-12T12:24:12.195Z,65.55
2019-02-12T12:25:12.447Z,65.38
2019-02-12T12:26:12.249Z,65.83
2019-02-12T12:27:12.578Z,65.62
2019-02-12T12:28:12.203Z,65.65
2019-02-12T12:29:12.478Z,65.51
2019-02-12T12:30:12.088Z,65.4
2019-02-12T12:31:12.588Z,64.87
2019-02-12T12:32:12.269Z,65.74
2019-02-12T12:33:12.500Z,65.49
2019-02-12T12:34:12.109Z,65.04
2019-02-12T12:35:12.423Z,64.83
2019-02-12T12:36:12.306Z,64.91
2019-02-12T12:37:12.098Z,65.09
2019-02-12T12:38:12.201Z,62.03
2019-02-12T12:39:12.436Z,63.87
2019-02-12T12:40:12.132Z,63.53
2019-02-12T12:41:12.658Z,63.96
2019-02-12T12:42:12.227Z,63.79
2019-02-12T12:43:13.274Z,64.02
2019-02-12T12:44:12.266Z,64.42
2019-02-12T12:45:12.112Z,64.75
2019-02-12T12:46:12.602Z,64.77
2019-02-12T12:47:13.111Z,64.87
2019-02-12T12:48:12.202Z,64.66
2019-02-12T12:49:12.166Z,64.26
2019-02-12T12:50:12.207Z,64.77
2019-02-12T12:51:12.162Z,65.76
2019-02-12T12:52:12.164Z,65.04
2019-02-12T12:53:12.136Z,65.1
2019-02-12T12:54:12.084Z,64.93
2019-02-12T12:55:12.060Z,65.37
2019-02-12T12:56:12.090Z,65.02
2019-02-12T12:57:13.087Z,65.28
2019-02-12T12:58:13.936Z,65.48